Time;durP1;ratioP1;P1;durP2;ratioP2;P2;SDS_P1;SDS_P2;PMS_P1;PMS_P2;Temp;Humidity;BMP_temperature;BMP_pressure;BME280_temperature;BME280_humidity;BME280_pressure;Samples;Min_cycle;Max_cycle;Signal;HPM_P1;HPM_P2
2023/11/10 00:03:53;;;;;;;;;;;;;;;17.15;49.42;97945.97;10325798;28;1886;-76
2023/11/10 00:08:48;;;;;;;;;;;;;;;17.14;49.49;97939.84;10326360;28;795;-76
2023/11/10 00:13:44;;;;;;;;;;;;;;;17.12;49.59;97935.66;10325218;28;1320;-76
2023/11/10 00:18:42;;;;;;;;;;;;;;;17.11;49.67;97926.91;10325580;28;817;-76
2023/11/10 00:23:38;;;;;;;;;;;;;;;17.13;49.54;97914.47;10325347;28;1956;-76
2023/11/10 00:28:34;;;;;;;;;;;;;;;17.13;49.52;97911.81;10325391;28;876;-77
2023/11/10 00:33:30;;;;;;;;;;;;;;;17.12;49.59;97912.78;10324716;28;1326;-77
2023/11/10 00:38:26;;;;;;;;;;;;;;;17.09;49.58;97900.69;10326477;28;960;-77
2023/11/10 00:43:22;;;;;;;;;;;;;;;17.08;49.48;97909.53;10326135;28;1977;-77
2023/11/10 00:48:18;;;;;;;;;;;;;;;17.11;49.38;97907.63;10334048;28;968;-77
2023/11/10 00:53:14;;;;;;;;;;;;;;;17.11;49.43;97908.47;10333089;28;846;-76
2023/11/10 00:58:10;;;;;;;;;;;;;;;17.08;49.40;97893.75;10333578;28;818;-77
2023/11/10 01:03:06;;;;;;;;;;;;;;;17.07;49.58;97880.69;10333468;28;887;-77
2023/11/10 01:08:01;;;;;;;;;;;;;;;17.06;49.54;97892.16;10332540;28;1871;-77
2023/11/10 01:12:58;;;;;;;;;;;;;;;17.09;49.51;97886.69;10332327;28;818;-77
2023/11/10 01:17:54;;;;;;;;;;;;;;;17.10;49.33;97880.47;10332089;28;977;-77
2023/11/10 01:22:50;;;;;;;;;;;;;;;17.07;49.30;97881.50;10332511;28;1534;-77
2023/11/10 01:27:46;;;;;;;;;;;;;;;17.07;49.59;97891.22;10331083;28;1890;-77
2023/11/10 01:32:42;;;;;;;;;;;;;;;17.06;49.35;97882.47;10331945;28;1249;-77
2023/11/10 01:37:38;;;;;;;;;;;;;;;17.08;49.38;97869.19;10331423;28;935;-76
2023/11/10 01:42:33;;;;;;;;;;;;;;;17.09;49.45;97860.34;10331784;28;837;-76
2023/11/10 01:47:29;;;;;;;;;;;;;;;17.07;49.48;97860.47;10330964;28;1969;-76
2023/11/10 01:52:25;;;;;;;;;;;;;;;17.06;49.65;97868.47;10331487;28;878;-76
2023/11/10 01:57:21;;;;;;;;;;;;;;;17.06;49.45;97865.84;10330052;28;1056;-76
2023/11/10 02:02:17;;;;;;;;;;;;;;;17.07;49.67;97849.09;10330547;28;879;-76
2023/11/10 02:07:13;;;;;;;;;;;;;;;17.08;49.43;97850.75;10330901;28;1901;-76
2023/11/10 02:12:09;;;;;;;;;;;;;;;17.07;49.58;97849.09;10330795;28;855;-76
2023/11/10 02:17:05;;;;;;;;;;;;;;;17.05;49.57;97850.97;10330023;28;786;-76
2023/11/10 02:22:01;;;;;;;;;;;;;;;17.05;49.70;97850.97;10329880;28;809;-76
2023/11/10 02:26:57;;;;;;;;;;;;;;;17.06;49.60;97840.34;10329541;28;1953;-76
2023/11/10 02:31:54;;;;;;;;;;;;;;;17.07;49.52;97849.09;10329650;28;1195;-76
2023/11/10 02:36:51;;;;;;;;;;;;;;;17.05;49.53;97843.91;10328538;28;935;-76
2023/11/10 02:41:46;;;;;;;;;;;;;;;17.02;49.77;97851.19;10328959;28;868;-76
2023/11/10 02:46:42;;;;;;;;;;;;;;;17.01;49.82;97842.47;10329350;28;1906;-76
2023/11/10 02:51:38;;;;;;;;;;;;;;;17.03;49.43;97835.31;10328589;28;806;-76
2023/11/10 02:56:34;;;;;;;;;;;;;;;17.03;49.75;97842.38;10328969;28;834;-76
2023/11/10 03:01:30;;;;;;;;;;;;;;;17.01;49.56;97834.56;10328739;28;862;-77
2023/11/10 03:06:26;;;;;;;;;;;;;;;17.01;49.62;97839.00;10327611;28;1945;-76
2023/11/10 03:11:22;;;;;;;;;;;;;;;17.03;49.71;97839.75;10328006;28;896;-76
2023/11/10 03:16:18;;;;;;;;;;;;;;;17.03;49.68;97832.69;10328113;28;794;-76
2023/11/10 03:21:14;;;;;;;;;;;;;;;17.02;49.50;97830.16;10327345;28;807;-76
2023/11/10 03:26:09;;;;;;;;;;;;;;;17.00;49.74;97829.41;10326945;28;1936;-76
2023/11/10 03:31:06;;;;;;;;;;;;;;;17.01;49.82;97829.31;10326234;28;1290;-76
2023/11/10 03:36:02;;;;;;;;;;;;;;;17.03;49.51;97829.22;10327327;28;933;-76
2023/11/10 03:41:02;;;;;;;;;;;;;;;17.02;49.63;97819.63;10327067;28;862;-76
2023/11/10 03:45:58;;;;;;;;;;;;;;;17.00;49.46;97832.03;10327640;28;1906;-76
2023/11/10 03:50:54;;;;;;;;;;;;;;;16.99;49.53;97835.63;10326251;28;898;-76
2023/11/10 03:55:50;;;;;;;;;;;;;;;17.00;49.41;97835.53;10326612;28;879;-76
2023/11/10 04:00:46;;;;;;;;;;;;;;;17.02;49.54;97835.41;10326054;28;775;-76
2023/11/10 04:05:44;;;;;;;;;;;;;;;17.01;49.49;97825.84;10326434;28;1898;-76
2023/11/10 04:10:40;;;;;;;;;;;;;;;16.97;49.51;97833.09;10325724;28;958;-76
2023/11/10 04:15:36;;;;;;;;;;;;;;;16.97;49.69;97821.72;10326889;28;881;-76
2023/11/10 04:20:34;;;;;;;;;;;;;;;17.00;49.62;97818.88;10325268;28;941;-76
2023/11/10 04:25:30;;;;;;;;;;;;;;;17.00;49.45;97816.25;10325923;28;1898;-76
2023/11/10 04:30:28;;;;;;;;;;;;;;;16.99;49.51;97817.22;10325257;28;1289;-76
2023/11/10 04:35:24;;;;;;;;;;;;;;;16.97;49.76;97832.25;10325951;28;866;-76
2023/11/10 04:40:20;;;;;;;;;;;;;;;16.94;49.83;97808.78;10325150;28;968;-76
2023/11/10 04:45:15;;;;;;;;;;;;;;;16.95;49.61;97803.44;10325593;28;1922;-76
2023/11/10 04:50:12;;;;;;;;;;;;;;;16.96;49.62;97806.91;10324951;28;976;-76
2023/11/10 04:55:11;;;;;;;;;;;;;;;17.01;49.46;97818.78;10324774;28;811;-77
2023/11/10 05:00:07;;;;;;;;;;;;;;;17.05;49.28;97803.59;10324710;28;930;-76
2023/11/10 05:05:03;;;;;;;;;;;;;;;17.03;49.30;97809.00;10325155;28;1898;-76
2023/11/10 05:10:00;;;;;;;;;;;;;;;17.05;49.26;97811.50;10325159;28;834;-76
2023/11/10 05:14:57;;;;;;;;;;;;;;;17.06;49.41;97807.94;10324476;28;882;-76
2023/11/10 05:19:53;;;;;;;;;;;;;;;17.04;49.28;97813.28;10324951;28;826;-76
2023/11/10 05:24:49;;;;;;;;;;;;;;;17.08;49.23;97816.53;10324250;28;1893;-76
2023/11/10 05:29:45;;;;;;;;;;;;;;;17.07;49.24;97820.97;10323538;28;1089;-76
2023/11/10 05:34:41;;;;;;;;;;;;;;;17.07;49.25;97820.97;10331705;28;887;-76
2023/11/10 05:39:37;;;;;;;;;;;;;;;17.11;49.29;97824.25;10331924;28;826;-76
2023/11/10 05:44:32;;;;;;;;;;;;;;;17.12;49.03;97827.72;10331112;28;1910;-76
2023/11/10 05:49:28;;;;;;;;;;;;;;;17.09;49.35;97823.50;10330484;28;1059;-76
2023/11/10 05:54:25;;;;;;;;;;;;;;;17.11;49.05;97831.28;10331457;28;863;-76
2023/11/10 05:59:22;;;;;;;;;;;;;;;17.13;49.19;97827.59;10331244;28;858;-76
2023/11/10 06:04:23;;;;;;;;;;;;;;;17.09;49.17;97828.78;10330470;28;1961;-76
2023/11/10 06:09:22;;;;;;;;;;;;;;;17.13;48.93;97842.53;10330270;28;905;-76
2023/11/10 06:14:18;;;;;;;;;;;;;;;17.13;48.91;97835.47;10330075;28;938;-76
2023/11/10 06:19:15;;;;;;;;;;;;;;;17.11;49.11;97842.66;10330714;28;800;-76
2023/11/10 06:24:11;;;;;;;;;;;;;;;17.11;49.02;97839.16;10329686;28;1889;-76
2023/11/10 06:29:07;;;;;;;;;;;;;;;17.12;48.93;97841.72;10328976;28;1144;-77
2023/11/10 06:34:04;;;;;;;;;;;;;;;17.15;49.07;97856.44;10329598;28;837;-76
2023/11/10 06:39:02;;;;;;;;;;;;;;;17.27;48.64;97855.59;10329984;28;897;-72
2023/11/10 06:43:58;;;;;;;;;;;;;;;17.28;48.92;97860.72;10329418;28;1976;-72
2023/11/10 06:48:55;;;;;;;;;;;;;;;17.30;48.94;97861.47;10329354;28;905;-74
2023/11/10 06:53:51;;;;;;;;;;;;;;;17.31;48.65;97854.41;10328921;28;809;-73
2023/11/10 06:58:47;;;;;;;;;;;;;;;17.28;48.79;97859.88;10328510;28;906;-71
2023/11/10 07:03:43;;;;;;;;;;;;;;;17.26;48.70;97873.16;10328060;28;1959;-72
2023/11/10 07:08:39;;;;;;;;;;;;;;;17.23;48.46;97873.38;10328522;28;972;-72
2023/11/10 07:13:36;;;;;;;;;;;;;;;17.24;48.49;97882.97;10327208;28;774;-72
2023/11/10 07:18:32;;;;;;;;;;;;;;;17.18;48.38;97886.03;10327427;28;1000;-72
2023/11/10 07:23:28;;;;;;;;;;;;;;;17.14;48.49;97884.56;10327923;28;785;-72
2023/11/10 07:28:25;;;;;;;;;;;;;;;17.05;48.61;97883.41;10326490;28;1973;-72
2023/11/10 07:33:21;;;;;;;;;;;;;;;17.05;48.68;97903.63;10327525;28;1328;-72
2023/11/10 07:38:16;;;;;;;;;;;;;;;17.03;48.59;97902.91;10327349;28;825;-74
2023/11/10 07:43:12;;;;;;;;;;;;;;;16.96;48.88;97904.28;10326632;28;766;-74
2023/11/10 07:48:09;;;;;;;;;;;;;;;16.94;48.63;97907.00;10327281;28;1915;-75
2023/11/10 07:53:05;;;;;;;;;;;;;;;17.02;48.74;97919.63;10325742;28;937;-73
2023/11/10 07:58:01;;;;;;;;;;;;;;;17.09;48.56;97920.91;10326396;28;1093;-72
2023/11/10 08:02:57;;;;;;;;;;;;;;;17.15;48.38;97922.25;10326601;28;861;-72
2023/11/10 08:07:55;;;;;;;;;;;;;;;17.15;48.68;97917.84;10326404;28;1958;-72
2023/11/10 08:12:53;;;;;;;;;;;;;;;17.23;48.32;97928.66;10325148;28;880;-73
2023/11/10 08:17:49;;;;;;;;;;;;;;;17.28;48.32;97916.03;10325599;28;810;-72
2023/11/10 08:22:44;;;;;;;;;;;;;;;17.28;48.56;97908.13;10324946;28;1128;-72
2023/11/10 08:27:40;;;;;;;;;;;;;;;17.30;48.53;97911.50;10325310;28;1961;-72
2023/11/10 08:32:36;;;;;;;;;;;;;;;17.38;48.51;97910.13;10325227;28;1456;-72
2023/11/10 08:37:32;;;;;;;;;;;;;;;17.38;48.72;97918.03;10325846;28;811;-72
2023/11/10 08:42:28;;;;;;;;;;;;;;;17.39;48.95;97917.06;10325694;28;829;-73
2023/11/10 08:47:24;;;;;;;;;;;;;;;17.44;49.06;97915.78;10325012;28;1914;-72
2023/11/10 08:52:20;;;;;;;;;;;;;;;17.41;48.69;97908.09;10324951;28;866;-72
2023/11/10 08:57:16;;;;;;;;;;;;;;;17.45;49.07;97914.00;10324859;28;775;-72
2023/11/10 09:02:12;;;;;;;;;;;;;;;17.46;48.80;97911.25;10324770;28;791;-72
2023/11/10 09:07:08;;;;;;;;;;;;;;;17.46;48.66;97915.69;10328138;28;1961;-72
2023/11/10 09:12:05;;;;;;;;;;;;;;;17.47;48.91;97901.56;10332902;28;811;-72
2023/11/10 09:17:02;;;;;;;;;;;;;;;17.49;48.76;97894.38;10333170;28;859;-72
2023/11/10 09:21:58;;;;;;;;;;;;;;;17.49;48.75;97905.75;10332042;28;976;-72
2023/11/10 09:26:56;;;;;;;;;;;;;;;17.49;48.85;97912.81;10331739;28;1913;-72
2023/11/10 09:31:54;;;;;;;;;;;;;;;17.49;48.69;97905.75;10332643;28;1224;-72
2023/11/10 09:36:50;;;;;;;;;;;;;;;17.50;48.50;97912.72;10332218;28;805;-72
2023/11/10 09:41:45;;;;;;;;;;;;;;;17.47;48.49;97912.09;10331516;28;917;-73
2023/11/10 09:46:41;;;;;;;;;;;;;;;17.50;48.57;97911.88;10331125;28;1973;-72
2023/11/10 09:51:37;;;;;;;;;;;;;;;17.52;48.68;97912.59;10331285;28;957;-72
2023/11/10 09:56:35;;;;;;;;;;;;;;;17.52;48.73;97902.06;10330847;28;779;-72
2023/11/10 10:01:31;;;;;;;;;;;;;;;17.51;48.67;97885.44;10331251;28;834;-72
2023/11/10 10:06:27;;;;;;;;;;;;;;;17.57;48.59;97885.94;10331005;28;1906;-72
2023/11/10 10:11:22;;;;;;;;;;;;;;;17.56;48.72;97876.38;10330851;28;859;-72
2023/11/10 10:16:19;;;;;;;;;;;;;;;17.54;48.68;97876.47;10329076;28;936;-72
2023/11/10 10:21:15;;;;;;;;;;;;;;;17.59;48.53;97865.59;10329384;28;1119;-72
2023/11/10 10:26:15;;;;;;;;;;;;;;;17.62;48.59;97871.47;10329653;28;1902;-72
2023/11/10 10:31:11;;;;;;;;;;;;;;;17.62;48.68;97871.47;10329988;28;1120;-73
2023/11/10 10:36:07;;;;;;;;;;;;;;;17.65;48.74;97859.88;10329375;28;886;-73
2023/11/10 10:41:03;;;;;;;;;;;;;;;17.64;48.65;97858.22;10329814;28;865;-72
2023/11/10 10:46:00;;;;;;;;;;;;;;;17.57;48.72;97857.81;10328805;28;1917;-72
2023/11/10 10:50:56;;;;;;;;;;;;;;;17.60;48.63;97854.09;10328696;28;996;-72
2023/11/10 10:55:53;;;;;;;;;;;;;;;17.64;48.12;97848.50;10328585;28;877;-72
2023/11/10 11:00:50;;;;;;;;;;;;;;;17.65;48.50;97844.91;10328329;28;902;-72
2023/11/10 11:05:46;;;;;;;;;;;;;;;17.60;48.47;97833.84;10327430;28;1947;-68
2023/11/10 11:10:43;;;;;;;;;;;;;;;17.60;48.45;97844.41;10327838;28;989;-69
2023/11/10 11:15:39;;;;;;;;;;;;;;;17.58;48.40;97824.38;10327684;28;861;-72
2023/11/10 11:20:36;;;;;;;;;;;;;;;17.62;48.34;97823.22;10327880;28;835;-73
2023/11/10 11:25:32;;;;;;;;;;;;;;;17.63;48.27;97831.03;10327951;28;1959;-72
2023/11/10 11:30:28;;;;;;;;;;;;;;;17.66;48.00;97820.25;10326914;28;1162;-73
2023/11/10 11:35:24;;;;;;;;;;;;;;;17.63;47.98;97819.63;10326943;28;920;-69
2023/11/10 11:40:20;;;;;;;;;;;;;;;17.63;48.23;97803.81;10326992;28;927;-72
2023/11/10 11:45:16;;;;;;;;;;;;;;;17.71;48.11;97810.22;10326502;28;1982;-73
2023/11/10 11:50:12;;;;;;;;;;;;;;;17.74;47.98;97794.19;10326477;28;763;-73
2023/11/10 11:55:08;;;;;;;;;;;;;;;17.75;47.82;97787.94;10326280;28;862;-72
2023/11/10 12:00:08;;;;;;;;;;;;;;;17.76;47.76;97796.69;10326714;28;847;-73
2023/11/10 12:05:05;;;;;;;;;;;;;;;17.74;48.05;97794.19;10326335;28;1901;-73
2023/11/10 12:10:03;;;;;;;;;;;;;;;17.72;47.90;97788.19;10326608;28;826;-73
2023/11/10 12:14:59;;;;;;;;;;;;;;;17.69;47.96;97782.31;10326301;28;869;-72
2023/11/10 12:19:55;;;;;;;;;;;;;;;17.73;47.78;97774.03;10326192;28;986;-72
2023/11/10 12:24:51;;;;;;;;;;;;;;;17.73;47.98;97778.47;10326447;28;1897;-72
2023/11/10 12:29:47;;;;;;;;;;;;;;;17.70;47.81;97774.28;10325030;28;1240;-72
2023/11/10 12:34:43;;;;;;;;;;;;;;;17.67;47.90;97784.22;10325368;28;778;-72
2023/11/10 12:39:39;;;;;;;;;;;;;;;17.68;47.90;97797.28;10326335;28;862;-72
2023/11/10 12:44:35;;;;;;;;;;;;;;;17.70;48.12;97779.53;10333588;28;1906;-72
2023/11/10 12:49:31;;;;;;;;;;;;;;;17.63;48.13;97790.66;10333464;28;893;-73
2023/11/10 12:54:27;;;;;;;;;;;;;;;17.67;47.97;97800.03;10333261;28;866;-73
2023/11/10 12:59:23;;;;;;;;;;;;;;;17.68;48.16;97801.69;10333085;28;932;-72
2023/11/10 13:04:19;;;;;;;;;;;;;;;17.64;48.15;97798.44;10332770;28;1963;-73
2023/11/10 13:09:18;;;;;;;;;;;;;;;17.64;48.03;97805.50;10332315;28;1001;-73
2023/11/10 13:14:14;;;;;;;;;;;;;;;17.68;48.18;97812.22;10332460;28;897;-72
2023/11/10 13:19:09;;;;;;;;;;;;;;;17.65;48.12;97801.91;10331703;28;961;-72
2023/11/10 13:24:05;;;;;;;;;;;;;;;17.53;48.09;97812.41;10332088;28;1972;-71
2023/11/10 13:29:02;;;;;;;;;;;;;;;17.56;47.67;97813.16;10332346;28;1270;-71
2023/11/10 13:33:58;;;;;;;;;;;;;;;17.52;47.81;97821.25;10332210;28;861;-71
2023/11/10 13:38:54;;;;;;;;;;;;;;;17.51;47.93;97827.47;10331774;28;822;-73
2023/11/10 13:43:50;;;;;;;;;;;;;;;17.56;47.89;97828.94;10332070;28;1918;-73
2023/11/10 13:48:48;;;;;;;;;;;;;;;17.61;48.07;97827.66;10332337;28;871;-72
2023/11/10 13:53:44;;;;;;;;;;;;;;;17.61;48.03;97825.03;10330145;28;850;-73
2023/11/10 13:58:40;;;;;;;;;;;;;;;17.62;48.19;97824.06;10331196;28;949;-72
2023/11/10 14:03:36;;;;;;;;;;;;;;;17.64;48.11;97819.53;10330346;28;1020;-73
2023/11/10 14:08:32;;;;;;;;;;;;;;;17.65;48.26;97820.34;10330721;28;1947;-73
2023/11/10 14:13:28;;;;;;;;;;;;;;;17.64;48.19;97822.16;10329459;28;851;-73
2023/11/10 14:18:24;;;;;;;;;;;;;;;17.67;48.24;97821.94;10330507;28;782;-72
2023/11/10 14:23:19;;;;;;;;;;;;;;;17.70;48.29;97821.69;10329651;28;834;-73
2023/11/10 14:28:15;;;;;;;;;;;;;;;17.71;48.15;97828.66;10329394;28;1957;-73
2023/11/10 14:33:12;;;;;;;;;;;;;;;17.70;48.32;97824.34;10329382;28;1544;-73
2023/11/10 14:38:08;;;;;;;;;;;;;;;17.70;48.35;97832.25;10329597;28;889;-72
2023/11/10 14:43:08;;;;;;;;;;;;;;;17.71;48.15;97827.81;10329437;28;1687;-73
2023/11/10 14:48:03;;;;;;;;;;;;;;;17.71;48.40;97827.81;10328796;28;1918;-73
2023/11/10 14:52:59;;;;;;;;;;;;;;;17.70;48.58;97824.34;10328506;28;843;-74
2023/11/10 14:57:55;;;;;;;;;;;;;;;17.69;48.64;97825.31;10328277;28;858;-72
2023/11/10 15:02:52;;;;;;;;;;;;;;;17.69;48.61;97824.47;10329235;28;870;-72
2023/11/10 15:07:49;;;;;;;;;;;;;;;17.68;48.65;97821.00;10327853;28;1898;-73
2023/11/10 15:12:44;;;;;;;;;;;;;;;17.72;48.77;97824.22;10327748;28;833;-72
2023/11/10 15:17:41;;;;;;;;;;;;;;;17.75;48.57;97816.09;10327499;28;814;-72
2023/11/10 15:22:37;;;;;;;;;;;;;;;17.72;48.77;97821.59;10327210;28;1012;-74
2023/11/10 15:27:32;;;;;;;;;;;;;;;17.71;48.64;97826.03;10326450;28;1889;-72
2023/11/10 15:32:28;;;;;;;;;;;;;;;17.73;48.59;97821.47;10326931;28;1096;-72
2023/11/10 15:37:26;;;;;;;;;;;;;;;17.73;48.45;97823.28;10326723;28;779;-78
2023/11/10 15:42:22;;;;;;;;;;;;;;;17.65;48.96;97836.16;10327105;28;789;-78
2023/11/10 15:47:18;;;;;;;;;;;;;;;17.67;48.86;97837.75;10326895;28;1914;-78
2023/11/10 15:52:14;;;;;;;;;;;;;;;17.62;48.98;97833.75;10326194;28;920;-78
2023/11/10 15:57:09;;;;;;;;;;;;;;;17.57;48.83;97839.34;10326028;28;855;-78
2023/11/10 16:02:06;;;;;;;;;;;;;;;17.62;48.82;97841.66;10325312;28;885;-78
2023/11/10 16:07:02;;;;;;;;;;;;;;;17.59;49.00;97845.38;10325705;28;1898;-78
2023/11/10 16:11:58;;;;;;;;;;;;;;;17.51;49.07;97847.72;10325736;28;919;-73
2023/11/10 16:16:54;;;;;;;;;;;;;;;17.58;48.73;97842.81;10325100;28;862;-73
2023/11/10 16:21:50;;;;;;;;;;;;;;;17.61;48.75;97848.72;10325481;28;762;-72
2023/11/10 16:26:47;;;;;;;;;;;;;;;17.65;48.54;97850.19;10325200;28;1894;-73
2023/11/10 16:31:43;;;;;;;;;;;;;;;17.64;48.29;97852.94;10325409;28;1747;-72
2023/11/10 16:36:40;;;;;;;;;;;;;;;17.64;48.49;97866.94;10325052;28;885;-73
2023/11/10 16:41:39;;;;;;;;;;;;;;;17.64;48.26;97871.38;10325411;28;873;-72
2023/11/10 16:46:35;;;;;;;;;;;;;;;17.60;48.42;97873.38;10325343;28;1941;-73
2023/11/10 16:51:34;;;;;;;;;;;;;;;17.63;48.52;97872.31;10324786;28;968;-72
2023/11/10 16:56:29;;;;;;;;;;;;;;;17.60;48.68;97873.38;10325265;28;959;-71
2023/11/10 17:01:26;;;;;;;;;;;;;;;17.53;48.87;97870.38;10324665;28;882;-73
2023/11/10 17:06:22;;;;;;;;;;;;;;;17.52;48.97;97871.28;10324476;28;1903;-72
2023/11/10 17:11:18;;;;;;;;;;;;;;;17.53;48.89;97877.44;10324818;28;778;-71
2023/11/10 17:16:15;;;;;;;;;;;;;;;17.53;49.14;97869.53;10324539;28;958;-76
2023/11/10 17:21:11;;;;;;;;;;;;;;;17.37;49.81;97853.97;10324629;28;838;-77
2023/11/10 17:26:07;;;;;;;;;;;;;;;17.33;49.63;97854.31;10323871;28;1902;-77
2023/11/10 17:31:03;;;;;;;;;;;;;;;17.29;49.57;97861.56;10331845;28;1701;-77
2023/11/10 17:35:59;;;;;;;;;;;;;;;17.31;49.64;97862.31;10332260;28;889;-75
2023/11/10 17:40:58;;;;;;;;;;;;;;;17.32;49.54;97861.38;10330726;28;1047;-77
2023/11/10 17:45:54;;;;;;;;;;;;;;;17.33;49.60;97859.56;10331930;28;1910;-77
2023/11/10 17:50:50;;;;;;;;;;;;;;;17.35;49.47;97855.03;10331151;28;910;-77
2023/11/10 17:55:46;;;;;;;;;;;;;;;17.35;49.35;97850.63;10331003;28;937;-77
2023/11/10 18:00:43;;;;;;;;;;;;;;;17.34;49.49;97856.81;10331443;28;910;-77
2023/11/10 18:05:39;;;;;;;;;;;;;;;17.39;49.24;97853.84;10331168;28;1946;-77
2023/11/10 18:10:35;;;;;;;;;;;;;;;17.39;49.43;97854.69;10331063;28;889;-77
2023/11/10 18:15:31;;;;;;;;;;;;;;;17.38;49.31;97849.56;10330880;28;845;-77
2023/11/10 18:20:27;;;;;;;;;;;;;;;17.41;49.33;97851.97;10330059;28;829;-77
2023/11/10 18:25:23;;;;;;;;;;;;;;;17.39;49.42;97851.22;10330484;28;1890;-77
2023/11/10 18:30:18;;;;;;;;;;;;;;;17.39;49.43;97859.97;10330547;28;1363;-77
2023/11/10 18:35:15;;;;;;;;;;;;;;;17.39;49.42;97856.50;10329497;28;850;-77
2023/11/10 18:40:11;;;;;;;;;;;;;;;17.40;49.35;97848.50;10329557;28;865;-77
2023/11/10 18:45:07;;;;;;;;;;;;;;;17.40;49.32;97850.28;10329094;28;1975;-77
2023/11/10 18:50:04;;;;;;;;;;;;;;;17.38;49.34;97836.38;10328297;28;1242;-77
2023/11/10 18:55:01;;;;;;;;;;;;;;;17.43;49.24;97834.25;10330040;28;859;-77
2023/11/10 18:59:57;;;;;;;;;;;;;;;17.41;49.31;97829.09;10328539;28;830;-78
2023/11/10 19:04:53;;;;;;;;;;;;;;;17.40;49.39;97818.69;10328101;28;1889;-77
2023/11/10 19:09:49;;;;;;;;;;;;;;;17.43;49.30;97818.47;10328156;28;833;-77
2023/11/10 19:14:46;;;;;;;;;;;;;;;17.43;49.43;97818.47;10328715;28;867;-77
2023/11/10 19:19:42;;;;;;;;;;;;;;;17.40;49.37;97813.41;10327738;28;867;-77
2023/11/10 19:24:38;;;;;;;;;;;;;;;17.41;49.38;97809.81;10327453;28;1886;-77
2023/11/10 19:29:33;;;;;;;;;;;;;;;17.45;49.43;97813.94;10327421;28;1376;-77
2023/11/10 19:34:29;;;;;;;;;;;;;;;17.42;49.50;97814.13;10327069;28;1141;-77
2023/11/10 19:39:25;;;;;;;;;;;;;;;17.42;49.41;97807.09;10327138;28;984;-77
2023/11/10 19:44:22;;;;;;;;;;;;;;;17.45;49.41;97806.88;10326821;28;1977;-77
2023/11/10 19:49:18;;;;;;;;;;;;;;;17.44;49.45;97812.22;10326472;28;898;-77
2023/11/10 19:54:14;;;;;;;;;;;;;;;17.42;49.49;97807.09;10326407;28;912;-77
2023/11/10 19:59:12;;;;;;;;;;;;;;;17.47;49.38;97812.00;10326292;28;781;-76
2023/11/10 20:04:15;;;;;;;;;;;;;;;17.46;49.51;97812.97;10325997;28;1981;-77
2023/11/10 20:09:15;;;;;;;;;;;;;;;17.44;49.48;97813.06;10325905;28;897;-77
2023/11/10 20:14:11;;;;;;;;;;;;;;;17.46;49.38;97810.34;10325871;28;821;-77
2023/11/10 20:19:09;;;;;;;;;;;;;;;17.48;49.39;97811.06;10325715;28;905;-77
2023/11/10 20:24:05;;;;;;;;;;;;;;;17.45;49.53;97819.19;10325563;28;1898;-77
2023/11/10 20:29:01;;;;;;;;;;;;;;;17.47;49.55;97822.53;10325261;28;1623;-77
2023/11/10 20:33:57;;;;;;;;;;;;;;;17.48;49.60;97811.06;10325450;28;1012;-77
2023/11/10 20:38:53;;;;;;;;;;;;;;;17.46;49.43;97813.81;10325333;28;783;-77
2023/11/10 20:43:49;;;;;;;;;;;;;;;17.42;49.42;97807.09;10325317;28;878;-77
2023/11/10 20:48:46;;;;;;;;;;;;;;;17.40;49.56;97809.00;10325097;28;1965;-77
2023/11/10 20:53:42;;;;;;;;;;;;;;;17.38;49.80;97802.16;10325070;28;858;-77
2023/11/10 20:58:39;;;;;;;;;;;;;;;17.39;49.63;97807.28;10324966;28;909;-77
2023/11/10 21:03:35;;;;;;;;;;;;;;;17.38;49.67;97797.72;10330802;28;865;-77
2023/11/10 21:08:32;;;;;;;;;;;;;;;17.37;49.79;97795.19;10332849;28;1902;-77
2023/11/10 21:13:28;;;;;;;;;;;;;;;17.35;49.84;97794.47;10332622;28;794;-77
2023/11/10 21:18:24;;;;;;;;;;;;;;;17.36;49.61;97788.25;10333386;28;844;-77
2023/11/10 21:23:20;;;;;;;;;;;;;;;17.39;49.72;97785.38;10331702;28;1322;-77
2023/11/10 21:28:16;;;;;;;;;;;;;;;17.36;49.77;97789.09;10331925;28;1969;-77
2023/11/10 21:33:12;;;;;;;;;;;;;;;17.34;49.67;97782.25;10332415;28;1100;-77
2023/11/10 21:38:08;;;;;;;;;;;;;;;17.35;49.85;97773.41;10331143;28;818;-77
2023/11/10 21:43:05;;;;;;;;;;;;;;;17.38;49.76;97757.38;10330778;28;1157;-77
2023/11/10 21:48:02;;;;;;;;;;;;;;;17.39;49.63;97756.41;10331612;28;1906;-77
2023/11/10 21:52:58;;;;;;;;;;;;;;;17.39;49.78;97751.97;10331109;28;980;-77
2023/11/10 21:57:54;;;;;;;;;;;;;;;17.37;49.77;97739.88;10331570;28;914;-77
2023/11/10 22:02:50;;;;;;;;;;;;;;;17.34;49.93;97737.47;10331417;28;818;-77
2023/11/10 22:07:46;;;;;;;;;;;;;;;17.31;49.64;97738.53;10330493;28;1899;-77
2023/11/10 22:12:42;;;;;;;;;;;;;;;17.29;49.91;97738.66;10329746;28;869;-77
2023/11/10 22:17:38;;;;;;;;;;;;;;;17.30;49.73;97740.34;10330166;28;798;-77
2023/11/10 22:22:34;;;;;;;;;;;;;;;17.31;49.80;97726.22;10330092;28;1059;-77
2023/11/10 22:27:30;;;;;;;;;;;;;;;17.33;49.80;97733.19;10329760;28;1961;-77
2023/11/10 22:32:26;;;;;;;;;;;;;;;17.32;49.86;97732.34;10330109;28;1337;-77
2023/11/10 22:37:22;;;;;;;;;;;;;;;17.29;49.88;97722.88;10328940;28;921;-77
2023/11/10 22:42:18;;;;;;;;;;;;;;;17.28;49.96;97720.34;10329215;28;934;-77
2023/11/10 22:47:14;;;;;;;;;;;;;;;17.25;50.02;97718.78;10328939;28;1972;-77
2023/11/10 22:52:10;;;;;;;;;;;;;;;17.28;49.92;97726.44;10328374;28;897;-77
2023/11/10 22:57:05;;;;;;;;;;;;;;;17.28;50.04;97725.59;10329373;28;782;-77
2023/11/10 23:02:02;;;;;;;;;;;;;;;17.28;49.85;97726.44;10328566;28;886;-77
2023/11/10 23:06:58;;;;;;;;;;;;;;;17.26;49.98;97733.59;10328183;28;1945;-77
2023/11/10 23:11:55;;;;;;;;;;;;;;;17.23;50.07;97733.00;10327476;28;980;-76
2023/11/10 23:16:51;;;;;;;;;;;;;;;17.21;50.09;97735.75;10327802;28;818;-76
2023/11/10 23:21:47;;;;;;;;;;;;;;;17.22;50.14;97737.44;10328817;28;852;-77
2023/11/10 23:26:44;;;;;;;;;;;;;;;17.23;49.98;97741.72;10327046;28;1957;-77
2023/11/10 23:31:40;;;;;;;;;;;;;;;17.21;50.09;97750.69;10326677;28;1337;-77
2023/11/10 23:36:36;;;;;;;;;;;;;;;17.23;50.13;97760.16;10327203;28;880;-77
2023/11/10 23:41:32;;;;;;;;;;;;;;;17.24;49.99;97785.56;10327533;28;878;-76
2023/11/10 23:46:28;;;;;;;;;;;;;;;17.25;50.10;97810.09;10326539;28;1906;-76
2023/11/10 23:51:24;;;;;;;;;;;;;;;17.23;50.08;97827.78;10327166;28;862;-77
2023/11/10 23:56:20;;;;;;;;;;;;;;;17.22;50.40;97842.75;10326962;28;1635;-76
